Time;durP1;ratioP1;P1;durP2;ratioP2;P2;SDS_P1;SDS_P2;PMS_P1;PMS_P2;Temp;Humidity;BMP_temperature;BMP_pressure;BME280_temperature;BME280_humidity;BME280_pressure;Samples;Min_cycle;Max_cycle;Signal;HPM_P1;HPM_P2
2021/11/21 00:01:39;;;;;;;6.97;3.92;;;8.60;67.80;;;;;;4977129;28;20058;-57
2021/11/21 00:04:05;;;;;;;11.20;4.00;;;8.60;67.90;;;;;;4977215;28;20038;-59
2021/11/21 00:06:32;;;;;;;7.90;4.32;;;8.60;67.90;;;;;;4977141;28;20023;-59
2021/11/21 00:08:57;;;;;;;7.93;3.72;;;8.50;67.90;;;;;;4977137;28;20102;-59
2021/11/21 00:11:23;;;;;;;8.25;4.13;;;8.50;68.00;;;;;;4977150;28;20486;-59
2021/11/21 00:13:50;;;;;;;8.10;4.63;;;8.50;68.10;;;;;;4977347;28;20031;-59
2021/11/21 00:16:17;;;;;;;7.80;4.53;;;8.50;68.10;;;;;;4977030;28;20022;-56
2021/11/21 00:18:43;;;;;;;6.32;4.13;;;8.40;68.10;;;;;;4976971;28;20069;-59
2021/11/21 00:21:09;;;;;;;9.50;4.50;;;8.40;68.20;;;;;;4976807;28;20022;-58
2021/11/21 00:23:35;;;;;;;8.90;5.00;;;8.30;68.30;;;;;;4976920;28;20089;-58
2021/11/21 00:26:00;;;;;;;9.10;5.13;;;8.30;68.40;;;;;;4976876;28;20035;-59
2021/11/21 00:28:26;;;;;;;8.90;4.80;;;8.20;68.50;;;;;;4984678;28;20069;-56
2021/11/21 00:30:52;;;;;;;9.93;5.03;;;8.20;68.60;;;;;;4996126;28;20382;-57
2021/11/21 00:33:18;;;;;;;10.55;5.85;;;8.20;68.90;;;;;;4996192;28;20026;-57
2021/11/21 00:35:44;;;;;;;9.25;5.85;;;8.20;69.10;;;;;;4996076;28;20022;-59
2021/11/21 00:38:11;;;;;;;10.80;5.20;;;8.10;69.10;;;;;;4996206;28;20015;-58
2021/11/21 00:40:37;;;;;;;11.20;5.45;;;8.10;69.10;;;;;;4995361;28;20077;-58
2021/11/21 00:43:03;;;;;;;10.55;4.85;;;8.10;69.20;;;;;;4977720;28;20475;-58
2021/11/21 00:45:29;;;;;;;10.23;4.95;;;8.10;70.00;;;;;;4976458;28;20038;-59
2021/11/21 00:47:56;;;;;;;8.38;4.88;;;8.10;69.40;;;;;;4976344;28;20023;-59
2021/11/21 00:50:28;;;;;;;7.93;4.50;;;8.10;69.30;;;;;;4976637;28;20118;-59
2021/11/21 00:53:00;;;;;;;8.57;4.10;;;8.10;69.40;;;;;;4976540;28;20027;-58
2021/11/21 00:56:02;;;;;;;6.65;3.72;;;8.10;69.40;;;;;;4976354;28;20059;-59
2021/11/21 00:58:20;;;;;;;9.02;4.18;;;8.20;69.40;;;;;;4975105;28;20715;-57
2021/11/21 01:00:49;;;;;;;9.52;4.28;;;8.20;69.50;;;;;;4976105;28;20084;-57
2021/11/21 01:03:17;;;;;;;7.88;4.32;;;8.20;69.50;;;;;;4976085;28;20030;-59
2021/11/21 01:05:44;;;;;;;8.52;4.15;;;8.20;69.40;;;;;;4976070;28;20023;-59
2021/11/21 01:08:11;;;;;;;12.45;4.43;;;8.10;69.30;;;;;;4976171;28;20463;-57
2021/11/21 01:10:37;;;;;;;8.13;3.92;;;8.10;69.40;;;;;;4975994;28;20061;-58
2021/11/21 01:13:04;;;;;;;10.27;4.40;;;8.10;69.40;;;;;;4976152;28;20033;-55
2021/11/21 01:15:31;;;;;;;9.73;4.32;;;8.10;69.50;;;;;;4975955;28;20101;-58
2021/11/21 01:17:58;;;;;;;10.70;4.65;;;8.10;69.60;;;;;;4976010;28;20023;-58
2021/11/21 01:20:26;;;;;;;9.52;4.57;;;8.00;69.60;;;;;;4975862;28;20015;-55
2021/11/21 01:22:53;;;;;;;8.55;4.25;;;8.00;69.80;;;;;;4974439;28;20085;-56
2021/11/21 01:25:19;;;;;;;6.10;3.97;;;8.00;69.90;;;;;;4975761;28;20033;-56
2021/11/21 01:27:45;;;;;;;11.43;4.90;;;8.00;69.90;;;;;;4975632;28;20023;-58
2021/11/21 01:30:15;;;;;;;7.22;3.95;;;8.00;70.00;;;;;;4975641;28;20049;-59
2021/11/21 01:32:41;;;;;;;10.35;6.15;;;8.00;70.10;;;;;;4992978;28;20029;-59
2021/11/21 01:35:08;;;;;;;8.43;4.35;;;8.00;70.10;;;;;;4993701;28;20034;-59
2021/11/21 01:37:34;;;;;;;6.75;4.15;;;8.10;70.20;;;;;;4995102;28;20498;-58
2021/11/21 01:40:00;;;;;;;12.48;4.93;;;8.10;70.10;;;;;;4994640;28;20049;-57
2021/11/21 01:42:26;;;;;;;8.05;4.45;;;8.10;70.10;;;;;;4994773;28;20501;-59
2021/11/21 01:44:51;;;;;;;7.60;4.40;;;8.10;70.20;;;;;;4994966;28;20026;-58
2021/11/21 01:47:18;;;;;;;8.25;4.25;;;8.20;70.20;;;;;;4994797;28;20053;-58
2021/11/21 01:49:44;;;;;;;11.50;5.43;;;8.20;70.30;;;;;;4982022;28;20035;-58
2021/11/21 01:52:10;;;;;;;8.65;4.22;;;8.20;70.30;;;;;;4974726;28;20031;-57
2021/11/21 01:54:36;;;;;;;13.85;5.30;;;8.30;70.30;;;;;;4975180;28;20069;-58
2021/11/21 01:57:03;;;;;;;11.13;5.20;;;8.30;70.30;;;;;;4975121;28;20419;-58
2021/11/21 01:59:29;;;;;;;8.45;4.45;;;8.30;70.30;;;;;;4975352;28;20431;-58
2021/11/21 02:01:55;;;;;;;10.30;4.93;;;8.40;70.30;;;;;;4974896;28;20086;-59
2021/11/21 02:04:21;;;;;;;6.75;4.03;;;8.40;70.30;;;;;;4975134;28;20026;-57
2021/11/21 02:06:47;;;;;;;7.65;4.82;;;8.50;70.30;;;;;;4974973;28;20355;-56
2021/11/21 02:09:13;;;;;;;7.72;5.10;;;8.60;70.30;;;;;;4974947;28;20047;-59
2021/11/21 02:11:40;;;;;;;9.52;4.55;;;8.60;70.30;;;;;;4974923;28;20058;-58
2021/11/21 02:14:05;;;;;;;7.15;4.35;;;8.70;70.30;;;;;;4974832;28;20122;-59
2021/11/21 02:16:32;;;;;;;7.90;4.20;;;8.70;70.20;;;;;;4974860;28;20486;-58
2021/11/21 02:18:58;;;;;;;6.65;4.13;;;8.70;70.20;;;;;;4975007;28;20423;-55
2021/11/21 02:21:24;;;;;;;9.48;4.30;;;8.70;70.20;;;;;;4974703;28;20069;-57
2021/11/21 02:23:50;;;;;;;8.27;4.85;;;8.70;70.20;;;;;;4975014;28;20489;-58
2021/11/21 02:26:17;;;;;;;9.20;4.53;;;8.70;70.30;;;;;;4974628;28;20031;-55
2021/11/21 02:28:47;;;;;;;9.50;4.78;;;8.80;70.40;;;;;;4974695;28;20047;-56
2021/11/21 02:31:14;;;;;;;7.43;4.20;;;8.80;70.50;;;;;;4974852;28;20541;-59
2021/11/21 02:33:41;;;;;;;10.57;5.30;;;8.80;70.40;;;;;;4979496;28;20467;-59
2021/11/21 02:36:08;;;;;;;7.45;4.32;;;8.80;70.50;;;;;;4993972;28;20419;-58
2021/11/21 02:38:36;;;;;;;7.80;4.47;;;8.80;70.50;;;;;;4988539;28;20039;-59
2021/11/21 02:41:05;;;;;;;10.27;4.68;;;8.80;70.40;;;;;;4974189;28;20057;-59
2021/11/21 02:43:31;;;;;;;8.05;3.85;;;8.90;70.70;;;;;;4974688;28;20027;-59
2021/11/21 02:45:57;;;;;;;8.73;4.47;;;8.90;70.60;;;;;;4974407;28;20026;-59
2021/11/21 02:48:27;;;;;;;7.78;4.53;;;8.90;70.70;;;;;;4974416;28;20157;-59
2021/11/21 02:50:53;;;;;;;9.57;5.30;;;8.90;70.80;;;;;;4974358;28;20109;-59
2021/11/21 02:53:22;;;;;;;12.82;5.53;;;8.90;70.90;;;;;;4974288;28;20042;-57
2021/11/21 02:55:51;;;;;;;9.77;4.85;;;8.90;70.90;;;;;;4974329;28;20085;-57
2021/11/21 02:58:17;;;;;;;10.73;5.10;;;8.90;70.90;;;;;;4974273;28;20034;-58
2021/11/21 03:00:43;;;;;;;9.85;4.32;;;8.90;71.00;;;;;;4974192;28;20018;-59
2021/11/21 03:03:09;;;;;;;9.82;5.25;;;8.90;71.00;;;;;;4974325;28;20455;-59
2021/11/21 03:05:35;;;;;;;9.15;5.10;;;8.90;71.10;;;;;;4976926;28;20189;-56
2021/11/21 03:08:02;;;;;;;10.85;5.00;;;8.90;71.80;;;;;;4978391;28;20471;-58
2021/11/21 03:10:29;;;;;;;6.70;4.75;;;8.90;71.40;;;;;;4978177;28;20023;-57
2021/11/21 03:12:59;;;;;;;8.02;4.80;;;8.90;71.40;;;;;;4997314;28;20064;-58
2021/11/21 03:15:26;;;;;;;6.90;4.55;;;8.90;71.60;;;;;;4997539;28;20030;-57
2021/11/21 03:17:53;;;;;;;8.48;4.65;;;8.90;71.60;;;;;;4997516;28;20482;-58
2021/11/21 03:20:22;;;;;;;7.68;4.80;;;8.90;71.60;;;;;;4997563;28;20030;-58
2021/11/21 03:22:48;;;;;;;8.40;5.07;;;8.90;71.70;;;;;;4997445;28;20084;-57
2021/11/21 03:25:15;;;;;;;7.75;5.32;;;8.90;71.70;;;;;;4997411;28;20463;-57
2021/11/21 03:27:41;;;;;;;8.02;5.13;;;9.00;71.80;;;;;;4997442;28;20022;-58
2021/11/21 03:30:10;;;;;;;9.95;5.60;;;8.90;71.90;;;;;;4997054;28;20057;-59
2021/11/21 03:32:36;;;;;;;10.05;5.00;;;8.90;71.90;;;;;;4997239;28;20022;-59
2021/11/21 03:35:03;;;;;;;7.22;5.35;;;8.90;72.00;;;;;;4997162;28;20504;-59
2021/11/21 03:37:29;;;;;;;9.02;4.68;;;8.90;72.20;;;;;;4997248;28;20474;-58
2021/11/21 03:39:54;;;;;;;7.78;5.20;;;8.90;72.20;;;;;;4996990;28;20061;-58
2021/11/21 03:42:20;;;;;;;7.93;4.72;;;8.90;72.40;;;;;;4996987;28;20030;-59
2021/11/21 03:44:46;;;;;;;6.93;4.70;;;8.90;72.30;;;;;;4993051;28;20026;-58
2021/11/21 03:47:12;;;;;;;10.07;5.18;;;8.90;72.40;;;;;;4977515;28;20022;-58
2021/11/21 03:49:38;;;;;;;9.50;4.68;;;9.00;72.60;;;;;;4977430;28;20395;-59
2021/11/21 03:52:04;;;;;;;9.35;5.32;;;8.90;72.50;;;;;;4977401;28;20035;-57
2021/11/21 03:54:30;;;;;;;8.32;5.38;;;9.00;72.40;;;;;;4977300;28;20367;-58
2021/11/21 03:56:57;;;;;;;8.25;4.45;;;9.00;72.40;;;;;;4977422;28;20077;-58
2021/11/21 03:59:23;;;;;;;9.75;5.03;;;8.90;72.30;;;;;;4977263;28;20038;-57
2021/11/21 04:01:49;;;;;;;8.20;4.45;;;8.90;72.20;;;;;;4977294;28;20031;-59
2021/11/21 04:04:16;;;;;;;8.52;5.18;;;8.90;72.30;;;;;;4977289;28;20041;-57
2021/11/21 04:06:42;;;;;;;8.10;4.80;;;8.90;72.40;;;;;;4977041;28;20027;-59
2021/11/21 04:09:08;;;;;;;9.60;5.10;;;8.90;72.40;;;;;;4977229;28;20509;-59
2021/11/21 04:11:34;;;;;;;8.55;5.00;;;8.80;72.50;;;;;;4977414;28;20545;-58
2021/11/21 04:14:00;;;;;;;7.70;5.07;;;8.80;72.60;;;;;;4977393;28;20039;-57
2021/11/21 04:16:27;;;;;;;7.63;4.80;;;8.80;72.70;;;;;;4976699;28;22671;-59
2021/11/21 04:18:53;;;;;;;7.00;4.60;;;8.70;72.70;;;;;;4976910;28;20038;-59
2021/11/21 04:21:19;;;;;;;7.88;5.38;;;8.70;72.90;;;;;;4976895;28;20027;-59
2021/11/21 04:23:46;;;;;;;8.10;5.10;;;8.70;73.00;;;;;;4976905;28;20068;-58
2021/11/21 04:26:12;;;;;;;9.85;5.32;;;8.70;73.20;;;;;;4976843;28;20027;-57
2021/11/21 04:28:38;;;;;;;8.68;5.68;;;8.70;73.40;;;;;;4976969;28;20383;-58
2021/11/21 04:31:05;;;;;;;8.23;5.07;;;8.70;73.60;;;;;;4983043;28;20022;-57
2021/11/21 04:33:31;;;;;;;9.38;5.78;;;8.70;73.50;;;;;;4992274;28;20026;-56
2021/11/21 04:35:57;;;;;;;8.40;5.53;;;8.60;73.60;;;;;;4996103;28;20109;-57
2021/11/21 04:38:24;;;;;;;9.45;6.18;;;8.60;73.70;;;;;;4996082;28;20153;-58
2021/11/21 04:40:53;;;;;;;11.90;6.00;;;8.60;73.90;;;;;;4995860;28;20053;-57
2021/11/21 04:43:20;;;;;;;9.00;5.90;;;8.60;73.90;;;;;;4996034;28;20038;-57
2021/11/21 04:45:47;;;;;;;9.35;5.93;;;8.70;74.10;;;;;;4995987;28;20046;-59
2021/11/21 04:48:13;;;;;;;10.35;6.05;;;8.60;74.00;;;;;;4995959;28;20018;-59
2021/11/21 04:50:39;;;;;;;10.52;6.53;;;8.70;74.30;;;;;;4994652;28;20030;-59
2021/11/21 04:53:06;;;;;;;9.60;5.75;;;8.70;74.30;;;;;;4976413;28;20034;-57
2021/11/21 04:55:32;;;;;;;8.95;6.00;;;8.70;75.00;;;;;;4976591;28;20046;-59
2021/11/21 04:57:58;;;;;;;8.32;5.55;;;8.70;74.50;;;;;;4976225;28;20424;-58
2021/11/21 05:00:24;;;;;;;9.75;5.93;;;8.70;74.60;;;;;;4975320;28;20118;-59
2021/11/21 05:02:51;;;;;;;12.85;6.45;;;8.70;74.70;;;;;;4976077;28;20072;-57
2021/11/21 05:05:19;;;;;;;9.65;6.88;;;8.70;74.60;;;;;;4976184;28;20414;-59
2021/11/21 05:07:45;;;;;;;9.98;6.30;;;8.70;74.80;;;;;;4976990;28;20085;-58
2021/11/21 05:10:11;;;;;;;10.15;6.18;;;8.80;75.00;;;;;;4995457;28;20032;-58
2021/11/21 05:12:38;;;;;;;11.02;6.32;;;8.80;75.00;;;;;;4995705;28;20026;-57
2021/11/21 05:15:09;;;;;;;10.63;7.05;;;8.80;75.00;;;;;;4995662;28;20433;-57
2021/11/21 05:17:35;;;;;;;11.38;7.25;;;8.80;75.20;;;;;;4995281;28;20028;-59
2021/11/21 05:20:02;;;;;;;11.95;7.63;;;8.80;75.20;;;;;;4995392;28;20224;-59
2021/11/21 05:22:28;;;;;;;8.85;7.43;;;8.80;75.30;;;;;;4995236;28;20026;-58
2021/11/21 05:24:54;;;;;;;11.82;7.18;;;8.80;75.40;;;;;;4995452;28;20501;-59
2021/11/21 05:27:23;;;;;;;10.60;7.03;;;8.90;75.60;;;;;;4993921;28;20029;-58
2021/11/21 05:29:49;;;;;;;11.07;6.68;;;8.90;75.70;;;;;;4995147;28;20030;-59
2021/11/21 05:32:15;;;;;;;10.43;7.55;;;8.90;75.70;;;;;;4994955;28;20031;-59
2021/11/21 05:34:41;;;;;;;11.85;7.57;;;9.00;75.80;;;;;;4995037;28;20480;-58
2021/11/21 05:37:07;;;;;;;12.25;7.30;;;8.90;75.80;;;;;;4995000;28;20032;-59
2021/11/21 05:39:33;;;;;;;8.43;6.95;;;9.00;75.90;;;;;;4994626;28;20053;-59
2021/11/21 05:41:58;;;;;;;9.00;7.30;;;9.00;76.10;;;;;;4990157;28;20023;-55
2021/11/21 05:44:24;;;;;;;10.38;7.32;;;9.00;76.10;;;;;;4975398;28;20048;-58
2021/11/21 05:46:50;;;;;;;9.80;7.25;;;9.10;76.30;;;;;;4975536;28;20023;-56
2021/11/21 05:49:15;;;;;;;10.25;7.38;;;9.10;76.30;;;;;;4975444;28;20449;-57
2021/11/21 05:51:41;;;;;;;10.98;7.97;;;9.20;76.30;;;;;;4975276;28;20371;-57
2021/11/21 05:54:07;;;;;;;11.00;7.20;;;9.20;76.20;;;;;;4975501;28;20114;-57
2021/11/21 05:56:33;;;;;;;9.77;7.05;;;9.30;77.00;;;;;;4973944;28;20027;-58
2021/11/21 05:58:59;;;;;;;12.18;7.90;;;9.30;76.30;;;;;;4975097;28;20035;-58
2021/11/21 06:01:25;;;;;;;11.63;7.75;;;9.40;76.40;;;;;;4993999;28;20117;-59
2021/11/21 06:03:51;;;;;;;9.75;8.00;;;9.40;76.50;;;;;;4994402;28;20085;-59
2021/11/21 06:06:21;;;;;;;10.15;7.50;;;9.50;76.50;;;;;;4994427;28;20018;-59
2021/11/21 06:08:47;;;;;;;10.57;7.93;;;9.50;76.60;;;;;;4994364;28;20026;-58
2021/11/21 06:11:13;;;;;;;12.48;8.00;;;9.60;77.10;;;;;;4994570;28;20035;-59
2021/11/21 06:13:40;;;;;;;9.80;7.18;;;9.70;76.50;;;;;;4994316;28;20131;-58
2021/11/21 06:16:06;;;;;;;10.10;7.35;;;9.70;76.60;;;;;;4994302;28;20030;-58
2021/11/21 06:18:32;;;;;;;10.43;7.55;;;9.80;76.40;;;;;;4982857;28;20042;-58
2021/11/21 06:20:57;;;;;;;11.05;7.78;;;9.80;76.40;;;;;;4974747;28;20034;-57
2021/11/21 06:23:23;;;;;;;11.70;7.25;;;9.90;76.50;;;;;;4974781;28;20482;-59
2021/11/21 06:25:49;;;;;;;10.90;8.60;;;9.90;76.60;;;;;;4974637;28;20038;-57
2021/11/21 06:28:16;;;;;;;11.93;8.63;;;9.90;76.50;;;;;;4983390;28;20027;-57
2021/11/21 06:30:41;;;;;;;10.27;7.60;;;10.00;76.50;;;;;;4994220;28;20497;-58
2021/11/21 06:33:07;;;;;;;11.70;8.32;;;10.00;76.50;;;;;;4989115;28;20030;-57
2021/11/21 06:35:34;;;;;;;10.85;7.88;;;10.10;76.50;;;;;;4974549;28;20038;-57
2021/11/21 06:38:00;;;;;;;10.75;7.90;;;10.20;76.50;;;;;;4974326;28;20082;-59
2021/11/21 06:40:25;;;;;;;10.77;8.43;;;10.20;76.30;;;;;;4974346;28;20055;-58
2021/11/21 06:42:51;;;;;;;12.60;8.75;;;10.30;76.30;;;;;;4974356;28;20122;-59
2021/11/21 06:45:17;;;;;;;12.93;9.15;;;10.40;76.30;;;;;;4974405;28;20386;-58
2021/11/21 06:47:43;;;;;;;12.07;8.95;;;10.40;76.30;;;;;;4974569;28;20098;-59
2021/11/21 06:50:12;;;;;;;8.77;7.10;;;10.50;76.20;;;;;;4993773;28;20407;-57
2021/11/21 06:52:39;;;;;;;9.68;7.55;;;10.50;76.10;;;;;;4993640;28;20062;-58
2021/11/21 06:55:07;;;;;;;10.73;8.18;;;10.50;76.00;;;;;;4993682;28;20030;-59
2021/11/21 06:57:33;;;;;;;11.25;8.60;;;10.50;76.10;;;;;;4993642;28;20022;-56
2021/11/21 07:00:01;;;;;;;11.07;7.22;;;10.50;76.10;;;;;;4993904;28;20080;-58
2021/11/21 07:02:27;;;;;;;11.15;8.52;;;10.60;76.30;;;;;;4993589;28;20034;-58
2021/11/21 07:04:53;;;;;;;9.60;7.82;;;10.60;76.30;;;;;;4994003;28;20022;-57
2021/11/21 07:07:19;;;;;;;10.35;8.13;;;10.70;76.30;;;;;;4976256;28;20033;-57
2021/11/21 07:09:44;;;;;;;12.40;8.15;;;10.70;76.30;;;;;;4974182;28;20027;-58
2021/11/21 07:12:12;;;;;;;12.50;8.77;;;10.70;76.30;;;;;;4974392;28;20425;-57
2021/11/21 07:14:38;;;;;;;10.13;7.65;;;10.80;76.30;;;;;;4974329;28;20364;-58
2021/11/21 07:17:04;;;;;;;10.23;8.30;;;10.80;76.00;;;;;;4974165;28;20046;-58
2021/11/21 07:19:30;;;;;;;9.65;7.45;;;10.80;76.10;;;;;;4974167;28;20482;-59
2021/11/21 07:21:56;;;;;;;10.80;9.27;;;10.90;76.20;;;;;;4974357;28;20027;-59
2021/11/21 07:24:22;;;;;;;9.57;7.43;;;10.90;76.10;;;;;;4974041;28;20027;-57
2021/11/21 07:26:47;;;;;;;11.23;8.13;;;10.90;76.10;;;;;;4974090;28;20098;-55
2021/11/21 07:29:13;;;;;;;12.23;9.15;;;10.90;76.10;;;;;;4991941;28;20026;-59
2021/11/21 07:31:39;;;;;;;12.45;9.20;;;11.00;76.10;;;;;;4993582;28;20031;-58
2021/11/21 07:34:05;;;;;;;10.80;8.32;;;11.00;76.00;;;;;;4993330;28;20026;-57
2021/11/21 07:36:31;;;;;;;10.10;7.95;;;11.10;75.90;;;;;;4993418;28;20039;-55
2021/11/21 07:38:57;;;;;;;10.00;8.05;;;11.10;76.10;;;;;;4991385;28;20026;-57
2021/11/21 07:41:23;;;;;;;10.85;8.60;;;11.10;76.00;;;;;;4973997;28;20034;-57
2021/11/21 07:43:49;;;;;;;12.52;9.13;;;11.20;75.80;;;;;;4973880;28;20523;-58
2021/11/21 07:46:15;;;;;;;10.05;8.02;;;11.20;75.50;;;;;;4972602;28;20150;-58
2021/11/21 07:48:41;;;;;;;9.30;7.75;;;11.30;75.70;;;;;;4973893;28;20195;-58
2021/11/21 07:51:07;;;;;;;13.00;8.50;;;11.30;75.60;;;;;;4983470;28;20010;-59
2021/11/21 07:53:32;;;;;;;10.40;8.05;;;11.30;75.70;;;;;;4996991;28;20022;-58
2021/11/21 07:55:58;;;;;;;12.80;8.88;;;11.30;75.50;;;;;;4996629;28;20112;-57
2021/11/21 07:58:25;;;;;;;11.00;8.32;;;11.40;75.60;;;;;;4996850;28;20022;-59
2021/11/21 08:00:52;;;;;;;9.93;8.43;;;11.40;75.30;;;;;;4996759;28;20390;-59
2021/11/21 08:03:18;;;;;;;10.63;8.20;;;11.40;75.20;;;;;;4996709;28;20027;-58
2021/11/21 08:05:44;;;;;;;11.65;8.93;;;11.50;75.40;;;;;;4996796;28;20153;-59
2021/11/21 08:08:09;;;;;;;9.45;7.45;;;11.50;75.30;;;;;;4996504;28;20023;-58
2021/11/21 08:10:36;;;;;;;10.20;7.95;;;11.50;75.20;;;;;;4996633;28;20102;-58
2021/11/21 08:13:03;;;;;;;9.70;7.80;;;11.60;75.00;;;;;;4991201;28;20031;-57
2021/11/21 08:15:29;;;;;;;11.07;8.23;;;11.60;75.10;;;;;;4977142;28;20430;-58
2021/11/21 08:17:55;;;;;;;10.75;8.73;;;11.60;74.90;;;;;;4992371;28;20089;-57
2021/11/21 08:20:21;;;;;;;10.90;7.68;;;11.60;75.00;;;;;;4996248;28;20130;-58
2021/11/21 08:22:47;;;;;;;11.45;8.25;;;11.70;74.80;;;;;;4996151;28;20121;-58
2021/11/21 08:25:13;;;;;;;11.82;8.45;;;11.70;74.80;;;;;;4996150;28;20030;-59
2021/11/21 08:27:39;;;;;;;10.90;8.25;;;11.70;74.60;;;;;;4994738;28;20057;-59
2021/11/21 08:30:07;;;;;;;9.95;8.48;;;11.70;74.60;;;;;;4976788;28;20027;-58
2021/11/21 08:32:33;;;;;;;11.60;8.60;;;11.80;75.40;;;;;;4976596;28;20391;-59
2021/11/21 08:34:59;;;;;;;9.93;7.82;;;11.80;74.60;;;;;;4976934;28;20418;-59
2021/11/21 08:37:25;;;;;;;10.20;7.55;;;11.80;74.70;;;;;;4976906;28;20109;-59
2021/11/21 08:39:51;;;;;;;9.88;8.13;;;11.80;74.60;;;;;;4976522;28;20066;-59
2021/11/21 08:42:17;;;;;;;9.43;8.15;;;11.90;74.70;;;;;;4976475;28;20432;-58
2021/11/21 08:44:42;;;;;;;9.68;7.45;;;11.90;74.60;;;;;;4975551;28;20030;-58
2021/11/21 08:47:10;;;;;;;10.05;7.88;;;11.90;74.40;;;;;;4976507;28;20023;-58
2021/11/21 08:49:37;;;;;;;10.98;8.63;;;12.00;74.40;;;;;;4982033;28;20490;-59
2021/11/21 08:52:04;;;;;;;11.75;9.13;;;12.00;74.50;;;;;;4994665;28;20034;-57
2021/11/21 08:54:30;;;;;;;12.38;8.88;;;12.10;74.30;;;;;;4995125;28;20372;-59
2021/11/21 08:56:56;;;;;;;9.43;7.97;;;12.10;74.40;;;;;;4994345;28;20179;-58
2021/11/21 08:59:22;;;;;;;12.70;9.15;;;12.10;74.30;;;;;;4992265;28;20034;-57
2021/11/21 09:01:48;;;;;;;11.85;8.73;;;12.10;74.00;;;;;;4992927;28;20037;-59
2021/11/21 09:04:14;;;;;;;14.77;10.40;;;12.20;74.20;;;;;;4993422;28;20101;-58
2021/11/21 09:06:43;;;;;;;12.35;9.63;;;12.20;73.90;;;;;;4995868;28;20114;-59
2021/11/21 09:09:09;;;;;;;13.57;9.32;;;12.20;73.90;;;;;;4994720;28;20036;-59
2021/11/21 09:11:35;;;;;;;11.35;8.63;;;12.20;73.90;;;;;;4995282;28;20022;-58
2021/11/21 09:14:03;;;;;;;9.38;7.47;;;12.30;73.80;;;;;;4994915;28;20402;-58
2021/11/21 09:16:28;;;;;;;9.77;8.50;;;12.30;73.70;;;;;;4995415;28;20537;-58
2021/11/21 09:18:54;;;;;;;10.35;9.18;;;12.30;73.70;;;;;;4989979;28;20062;-58
2021/11/21 09:21:20;;;;;;;10.68;8.43;;;12.30;73.80;;;;;;4975886;28;20038;-59
2021/11/21 09:23:46;;;;;;;11.32;9.00;;;12.40;73.90;;;;;;4975881;28;20023;-57
2021/11/21 09:26:11;;;;;;;11.82;8.27;;;12.40;73.90;;;;;;4975920;28;20034;-59
2021/11/21 09:28:37;;;;;;;10.88;8.93;;;12.40;73.60;;;;;;4988678;28;20525;-59
2021/11/21 09:31:03;;;;;;;10.52;8.68;;;12.40;73.50;;;;;;4995204;28;20053;-58
2021/11/21 09:33:29;;;;;;;9.95;7.85;;;12.50;73.70;;;;;;4995082;28;20022;-56
2021/11/21 09:35:55;;;;;;;12.02;8.80;;;12.50;73.40;;;;;;4994324;28;20049;-58
2021/11/21 09:38:21;;;;;;;12.77;10.07;;;12.50;73.40;;;;;;4995030;28;20026;-59
2021/11/21 09:40:48;;;;;;;10.68;7.65;;;12.50;73.20;;;;;;4994876;28;20043;-57
2021/11/21 09:43:13;;;;;;;10.38;8.13;;;12.50;73.20;;;;;;4994819;28;20026;-59
2021/11/21 09:45:39;;;;;;;11.38;7.65;;;12.50;72.90;;;;;;4995169;28;20048;-58
2021/11/21 09:48:06;;;;;;;11.48;8.23;;;12.50;72.90;;;;;;4994771;28;20022;-57
2021/11/21 09:50:36;;;;;;;10.05;7.63;;;12.40;72.90;;;;;;4995029;28;20031;-59
2021/11/21 09:53:03;;;;;;;10.45;7.15;;;12.50;72.90;;;;;;4976837;28;20049;-58
2021/11/21 09:55:29;;;;;;;10.70;8.00;;;12.40;72.70;;;;;;4975264;28;20082;-58
2021/11/21 09:57:55;;;;;;;9.73;7.65;;;12.50;72.80;;;;;;4975183;28;20030;-56
2021/11/21 10:00:24;;;;;;;9.27;7.18;;;12.40;72.80;;;;;;4975180;28;20037;-57
2021/11/21 10:02:58;;;;;;;8.43;6.95;;;12.40;72.80;;;;;;4975066;28;20027;-58
2021/11/21 10:05:27;;;;;;;9.25;6.68;;;12.40;72.50;;;;;;4975401;28;20110;-59
2021/11/21 10:08:16;;;;;;;9.43;7.82;;;12.40;72.60;;;;;;4974778;28;20027;-57
2021/11/21 10:10:46;;;;;;;7.88;6.53;;;12.40;72.60;;;;;;4982119;28;20431;-58
2021/11/21 10:13:42;;;;;;;9.25;7.15;;;12.40;72.70;;;;;;4994261;28;20030;-59
2021/11/21 10:16:19;;;;;;;9.73;7.63;;;12.40;72.40;;;;;;4977989;28;20638;-59
2021/11/21 10:18:54;;;;;;;9.70;7.90;;;12.40;72.50;;;;;;4994192;28;20037;-59
2021/11/21 10:21:25;;;;;;;9.10;7.32;;;12.50;72.40;;;;;;4992754;28;20506;-59
2021/11/21 10:24:09;;;;;;;;;;;12.50;72.20;;;;;;4993671;28;20109;-58
2021/11/21 10:26:35;;;;;;;9.63;6.80;;;12.50;72.30;;;;;;4993032;28;19913;-57
2021/11/21 10:29:00;;;;;;;8.23;7.15;;;12.50;72.20;;;;;;4978199;28;20048;-58
2021/11/21 10:31:30;;;;;;;7.80;6.15;;;12.50;72.00;;;;;;4974657;28;20427;-59
2021/11/21 10:33:58;;;;;;;10.15;7.45;;;12.50;71.80;;;;;;4974927;28;20118;-59
2021/11/21 10:36:29;;;;;;;7.80;6.55;;;12.50;71.60;;;;;;4974810;28;20432;-58
2021/11/21 10:39:04;;;;;;;9.55;6.82;;;12.50;71.70;;;;;;4974509;28;20109;-59
2021/11/21 10:41:33;;;;;;;8.38;6.43;;;12.60;71.70;;;;;;4974599;28;20031;-57
2021/11/21 10:44:08;;;;;;;9.18;6.57;;;12.60;71.70;;;;;;4974461;28;20034;-57
2021/11/21 10:46:36;;;;;;;9.73;7.47;;;12.50;71.50;;;;;;4974406;28;20026;-58
2021/11/21 10:49:47;;;;;;;9.43;6.63;;;12.60;71.70;;;;;;4974537;28;20105;-58
2021/11/21 10:52:17;;;;;;;8.70;6.83;;;12.60;71.70;;;;;;4933788;29;20039;-58
2021/11/21 10:54:57;;;;;;;9.43;6.13;;;12.60;71.60;;;;;;4967200;28;20105;-59
2021/11/21 10:57:33;;;;;;;9.23;7.03;;;12.60;71.30;;;;;;4974405;28;20383;-57
2021/11/21 11:00:06;;;;;;;9.88;7.10;;;12.60;71.20;;;;;;4974637;28;20443;-58
2021/11/21 11:02:40;;;;;;;11.95;6.97;;;12.60;71.20;;;;;;4977621;28;20041;-57
2021/11/21 11:05:12;;;;;;;10.13;6.78;;;12.60;71.20;;;;;;4974231;28;20026;-59
2021/11/21 11:07:58;;;;;;;10.05;7.40;;;12.60;71.00;;;;;;4974086;28;20022;-58
2021/11/21 11:10:35;;;;;;;9.98;6.60;;;12.60;71.00;;;;;;4973941;28;20117;-58
2021/11/21 11:13:12;;;;;;;10.75;6.60;;;12.60;70.90;;;;;;4979970;28;20033;-59
2021/11/21 11:15:41;;;;;;;7.50;5.95;;;12.70;71.00;;;;;;4993850;28;20038;-58
2021/11/21 11:18:10;;;;;;;9.80;6.97;;;12.70;70.80;;;;;;4993081;28;20471;-59
2021/11/21 11:20:48;;;;;;;8.57;6.90;;;12.70;70.90;;;;;;4993570;28;20385;-57
2021/11/21 11:23:16;;;;;;;9.32;6.35;;;12.80;70.70;;;;;;4993392;28;20030;-58
2021/11/21 11:25:44;;;;;;;11.05;6.80;;;12.80;70.50;;;;;;4994610;28;20035;-59
2021/11/21 11:28:16;;;;;;;10.70;6.95;;;12.80;70.40;;;;;;4997296;28;20019;-58
2021/11/21 11:30:42;;;;;;;8.82;6.80;;;12.80;70.30;;;;;;4997704;28;20018;-58
2021/11/21 11:33:12;;;;;;;9.65;7.05;;;12.80;70.40;;;;;;4997690;28;20110;-58
2021/11/21 11:35:47;;;;;;;11.52;7.55;;;12.90;70.20;;;;;;4980489;28;20521;-57
2021/11/21 11:38:22;;;;;;;10.07;7.40;;;12.90;70.20;;;;;;4978041;28;20119;-58
2021/11/21 11:40:56;;;;;;;11.35;7.03;;;12.90;70.10;;;;;;4977589;28;20101;-57
2021/11/21 11:43:27;;;;;;;10.40;8.05;;;12.90;70.00;;;;;;4987465;28;20041;-58
2021/11/21 11:46:23;;;;;;;9.48;7.60;;;12.90;70.00;;;;;;4996299;28;20022;-59
2021/11/21 11:48:57;;;;;;;9.52;7.10;;;12.90;70.00;;;;;;4989430;28;20114;-58
2021/11/21 11:51:29;;;;;;;11.07;7.63;;;12.80;70.00;;;;;;4980570;28;20042;-57
2021/11/21 11:54:02;;;;;;;9.57;6.93;;;12.90;70.10;;;;;;4977460;28;20037;-54
2021/11/21 11:56:42;;;;;;;8.57;6.60;;;12.80;70.00;;;;;;4977463;28;20030;-57
2021/11/21 11:59:29;;;;;;;9.63;6.80;;;12.80;70.00;;;;;;4977290;28;20055;-59
2021/11/21 12:01:58;;;;;;;8.20;6.88;;;12.80;70.00;;;;;;4977040;28;20038;-57
2021/11/21 12:04:24;;;;;;;8.88;7.07;;;12.80;69.90;;;;;;4977380;28;20483;-58
2021/11/21 12:06:51;;;;;;;11.02;7.43;;;12.80;69.80;;;;;;4977395;28;20114;-59
2021/11/21 12:09:27;;;;;;;8.27;6.50;;;12.80;69.70;;;;;;4977141;28;20114;-59
2021/11/21 12:12:11;;;;;;;8.25;6.75;;;12.80;69.80;;;;;;4977420;28;20479;-58
2021/11/21 12:14:42;;;;;;;9.30;7.40;;;12.80;69.70;;;;;;4995780;28;20146;-58
2021/11/21 12:17:07;;;;;;;9.32;7.50;;;12.80;69.70;;;;;;4996503;28;20113;-58
2021/11/21 12:19:40;;;;;;;10.20;6.95;;;12.80;69.80;;;;;;4996492;28;20109;-58
2021/11/21 12:22:29;;;;;;;9.02;6.70;;;12.80;69.90;;;;;;4996280;28;20105;-59
2021/11/21 12:25:18;;;;;;;8.73;6.45;;;12.80;69.80;;;;;;4995841;28;20482;-58
2021/11/21 12:27:57;;;;;;;10.70;7.40;;;12.80;69.80;;;;;;4989752;28;20070;-58
2021/11/21 12:30:25;;;;;;;8.43;6.70;;;12.80;69.90;;;;;;4996523;28;20097;-59
2021/11/21 12:32:53;;;;;;;8.45;7.43;;;12.80;69.80;;;;;;4996284;28;20371;-58
2021/11/21 12:35:35;;;;;;;9.60;7.10;;;12.80;69.80;;;;;;4996244;28;20044;-58
2021/11/21 12:38:20;;;;;;;9.90;7.03;;;12.80;69.80;;;;;;4994713;28;20131;-59
2021/11/21 12:40:56;;;;;;;8.10;6.57;;;12.80;69.90;;;;;;4976582;28;20195;-58
2021/11/21 12:43:24;;;;;;;10.50;7.50;;;12.80;69.90;;;;;;4976510;28;20497;-57
2021/11/21 12:45:56;;;;;;;10.20;7.38;;;12.80;69.90;;;;;;4976577;28;20078;-58
2021/11/21 12:48:25;;;;;;;8.40;6.78;;;12.80;69.90;;;;;;4976543;28;20515;-58
2021/11/21 12:50:54;;;;;;;9.82;7.38;;;12.80;69.90;;;;;;4976358;28;20098;-59
2021/11/21 12:53:30;;;;;;;8.00;6.47;;;12.80;69.80;;;;;;4976710;28;20038;-59